Statia Express — V7TT3 — position and weather

sailwx.info

Track history (hours):
 
Tides and Currents Weather Stations Pressure Air Temp Water Temp Dewpoint Dewpoint Depression Visibility Wind Speed Wind Dir Waves Ship Positions

Statia Express

Last reported at 2016-May-30 00:26 UTC. Time now 2016-May-30 01:08 UTC.
Position N 18°01' W 063°03'.

Length 28 m; draft 4.1 m.

Type: Tug. MMSI: 538003879.

Date/timePositionNaut miles runAvg speedWind from/ knotsBaromVisibWave heightAir tempDewpointWater temp
2016-May-30 00:26N 18°01' W 063°03'0 0.0
2016-May-29 23:06N 18°01' W 063°03'1 0.9
2016-May-29 22:13N 18°00' W 063°04'1 0.8
2016-May-29 21:11N 18°01' W 063°03'1 0.5
2016-May-29 18:32N 18°00' W 063°04'1 0.2
2016-May-29 13:08N 18°01' W 063°03'0 0.0
2016-May-29 04:21N 18°01' W 063°03'0 0.0
2016-May-29 01:28N 18°01' W 063°03'0 0.0
2016-May-29 00:30N 18°01' W 063°03'2 0.5
2016-May-28 21:33N 18°00' W 063°05'1 0.1
2016-May-28 15:20N 18°00' W 063°04'1 0.1
2016-May-28 01:18N 18°01' W 063°03'2 2.8
2016-May-28 00:28N 17°59' W 063°05'5 4.8
2016-May-27 23:28N 17°54' W 063°04'5 5.5
2016-May-27 22:29N 17°49' W 063°04'  
Track history (hours):
 
Tides and Currents Weather Stations Pressure Air Temp Water Temp Dewpoint Dewpoint Depression Visibility Wind Speed Wind Dir Waves Ship Positions

Statia Express

Last reported at 2016-May-30 00:26 UTC. Time now 2016-May-30 01:08 UTC.
Position N 18°01' W 063°03'.

Length 28 m; draft 4.1 m.

Type: Tug. MMSI: 538003879.

Date/timePositionNaut miles runAvg speedWind from/ knotsBaromVisibWave heightAir tempDewpointWater temp
2016-May-30 00:26N 18°01' W 063°03'0 0.0
2016-May-29 23:06N 18°01' W 063°03'1 0.9
2016-May-29 22:13N 18°00' W 063°04'1 0.8
2016-May-29 21:11N 18°01' W 063°03'1 0.5
2016-May-29 18:32N 18°00' W 063°04'1 0.2
2016-May-29 13:08N 18°01' W 063°03'0 0.0
2016-May-29 04:21N 18°01' W 063°03'0 0.0
2016-May-29 01:28N 18°01' W 063°03'0 0.0
2016-May-29 00:30N 18°01' W 063°03'2 0.5
2016-May-28 21:33N 18°00' W 063°05'1 0.1
2016-May-28 15:20N 18°00' W 063°04'1 0.1
2016-May-28 01:18N 18°01' W 063°03'2 2.8
2016-May-28 00:28N 17°59' W 063°05'5 4.8
2016-May-27 23:28N 17°54' W 063°04'5 5.5
2016-May-27 22:29N 17°49' W 063°04'  

Dump ship's entire track history